Time;durP1;ratioP1;P1;durP2;ratioP2;P2;SDS_P1;SDS_P2;PMS_P1;PMS_P2;Temp;Humidity;BMP_temperature;BMP_pressure;BME280_temperature;BME280_humidity;BME280_pressure;Samples;Min_cycle;Max_cycle;Signal;HPM_P1;HPM_P2
2022/07/03 00:01:23;;;;;;;3.10;1.20;;;;;;;;;;4926037;29;20024;-60
2022/07/03 00:03:50;;;;;;;1.67;1.13;;;;;;;;;;4924011;29;20035;-60
2022/07/03 00:06:16;;;;;;;1.70;1.10;;;;;;;;;;4921488;29;20392;-60
2022/07/03 00:08:43;;;;;;;2.08;1.08;;;;;;;;;;4933096;29;20287;-59
2022/07/03 00:11:09;;;;;;;1.92;1.13;;;;;;;;;;4927802;29;20024;-59
2022/07/03 00:13:36;;;;;;;2.42;1.08;;;;;;;;;;4925876;29;20032;-59
2022/07/03 00:16:02;;;;;;;1.42;0.93;;;;;;;;;;4925717;29;20026;-59
2022/07/03 00:18:29;;;;;;;4.78;0.90;;;;;;;;;;4921282;29;20043;-60
2022/07/03 00:21:05;;;;;;;3.90;1.00;;;;;;;;;;4922323;29;20504;-59
2022/07/03 00:23:38;;;;;;;3.33;1.10;;;;;;;;;;4925264;29;20497;-60
2022/07/03 00:26:05;;;;;;;1.23;0.90;;;;;;;;;;4927359;29;20036;-59
2022/07/03 00:28:32;;;;;;;2.38;0.90;;;;;;;;;;4931031;29;20056;-59
2022/07/03 00:30:58;;;;;;;4.00;1.05;;;;;;;;;;4936321;29;20049;-59
2022/07/03 00:33:27;;;;;;;1.55;1.00;;;;;;;;;;4920604;29;20030;-60
2022/07/03 00:35:54;;;;;;;1.90;1.00;;;;;;;;;;4922503;29;20046;-60
2022/07/03 00:38:22;;;;;;;3.50;1.05;;;;;;;;;;4925516;29;20044;-59
2022/07/03 00:40:48;;;;;;;3.83;1.08;;;;;;;;;;4925517;29;20027;-59
2022/07/03 00:43:16;;;;;;;1.35;0.95;;;;;;;;;;4925365;29;20031;-60
2022/07/03 00:45:45;;;;;;;1.45;1.20;;;;;;;;;;4921259;29;20046;-59
2022/07/03 00:48:13;;;;;;;3.65;1.10;;;;;;;;;;4933751;29;20034;-59
2022/07/03 00:50:44;;;;;;;1.35;0.90;;;;;;;;;;4923884;29;20024;-59
2022/07/03 00:53:11;;;;;;;1.00;0.90;;;;;;;;;;4925403;29;20504;-59
2022/07/03 00:55:41;;;;;;;2.28;1.30;;;;;;;;;;4925151;29;20032;-59
2022/07/03 00:58:08;;;;;;;1.23;1.13;;;;;;;;;;4925123;29;20035;-59
2022/07/03 01:00:40;;;;;;;2.50;1.20;;;;;;;;;;4921926;29;20142;-60
2022/07/03 01:03:08;;;;;;;2.47;1.10;;;;;;;;;;4920282;29;20016;-60
2022/07/03 01:05:43;;;;;;;2.08;1.05;;;;;;;;;;4924087;29;20050;-59
2022/07/03 01:08:25;;;;;;;4.63;1.15;;;;;;;;;;4924834;29;20396;-59
2022/07/03 01:11:10;;;;;;;4.80;1.10;;;;;;;;;;4925122;29;20020;-59
2022/07/03 01:13:55;;;;;;;4.47;1.25;;;;;;;;;;4924531;29;20028;-60
2022/07/03 01:16:40;;;;;;;4.18;1.00;;;;;;;;;;4924205;29;20297;-60
2022/07/03 01:19:25;;;;;;;3.42;1.08;;;;;;;;;;4924594;29;20444;-60
2022/07/03 01:22:10;;;;;;;2.67;1.25;;;;;;;;;;4923436;29;20016;-59
2022/07/03 01:24:40;;;;;;;2.25;0.98;;;;;;;;;;4920502;29;20030;-59
2022/07/03 01:27:13;;;;;;;2.10;1.05;;;;;;;;;;4932787;29;20028;-60
2022/07/03 01:29:48;;;;;;;3.33;1.25;;;;;;;;;;4921138;29;20024;-60
2022/07/03 01:32:15;;;;;;;3.05;0.95;;;;;;;;;;4923999;29;20024;-59
2022/07/03 01:34:44;;;;;;;4.43;1.17;;;;;;;;;;4924423;29;20026;-59
2022/07/03 01:37:14;;;;;;;6.25;1.20;;;;;;;;;;4924197;29;20031;-59
2022/07/03 01:39:43;;;;;;;2.47;0.93;;;;;;;;;;4921621;29;20032;-59
2022/07/03 01:42:09;;;;;;;2.75;0.85;;;;;;;;;;4919853;29;20036;-59
2022/07/03 01:44:38;;;;;;;1.58;1.20;;;;;;;;;;4923608;29;20024;-59
2022/07/03 01:47:05;;;;;;;1.60;1.10;;;;;;;;;;4923867;29;20441;-59
2022/07/03 01:49:33;;;;;;;3.38;1.40;;;;;;;;;;4921214;29;20508;-60
2022/07/03 01:52:01;;;;;;;1.77;1.10;;;;;;;;;;4931398;29;20016;-59
2022/07/03 01:54:28;;;;;;;1.70;1.13;;;;;;;;;;4935070;29;20039;-60
2022/07/03 01:56:55;;;;;;;4.03;1.20;;;;;;;;;;4920715;29;20452;-60
2022/07/03 01:59:21;;;;;;;1.05;1.00;;;;;;;;;;4923584;29;20493;-59
2022/07/03 02:02:06;;;;;;;2.05;1.00;;;;;;;;;;4924212;29;20043;-60
2022/07/03 02:04:44;;;;;;;2.78;1.13;;;;;;;;;;4923762;29;20040;-59
2022/07/03 02:07:11;;;;;;;1.67;1.35;;;;;;;;;;4933665;29;20030;-59
2022/07/03 02:09:53;;;;;;;5.18;2.85;;;;;;;;;;4920627;29;20027;-59
2022/07/03 02:12:20;;;;;;;7.82;3.40;;;;;;;;;;4919437;29;20577;-60
2022/07/03 02:14:53;;;;;;;11.30;7.10;;;;;;;;;;4921503;29;20026;-59
2022/07/03 02:17:21;;;;;;;14.70;7.88;;;;;;;;;;4923612;29;20386;-59
2022/07/03 02:19:54;;;;;;;13.07;6.90;;;;;;;;;;4924063;29;20035;-59
2022/07/03 02:22:23;;;;;;;8.45;4.82;;;;;;;;;;4923822;29;20020;-60
2022/07/03 02:24:50;;;;;;;11.25;5.07;;;;;;;;;;4922075;29;20172;-60
2022/07/03 02:27:28;;;;;;;10.18;5.50;;;;;;;;;;4919271;29;20034;-59
2022/07/03 02:30:09;;;;;;;6.97;3.40;;;;;;;;;;4920151;29;20030;-59
2022/07/03 02:32:41;;;;;;;10.85;3.85;;;;;;;;;;4922928;29;20059;-59
2022/07/03 02:35:09;;;;;;;6.60;3.33;;;;;;;;;;4923681;29;20388;-60
2022/07/03 02:37:38;;;;;;;5.00;2.63;;;;;;;;;;4923537;29;20036;-60
2022/07/03 02:40:08;;;;;;;6.85;2.80;;;;;;;;;;4923569;29;20104;-59
2022/07/03 02:42:54;;;;;;;2.97;2.13;;;;;;;;;;4919911;29;20061;-59
2022/07/03 02:45:21;;;;;;;3.38;1.60;;;;;;;;;;4933632;29;20034;-59
2022/07/03 02:47:52;;;;;;;3.60;1.70;;;;;;;;;;4921360;29;20047;-60
2022/07/03 02:50:22;;;;;;;2.63;1.90;;;;;;;;;;4926699;29;20030;-60
2022/07/03 02:53:06;;;;;;;3.63;1.50;;;;;;;;;;4930307;29;20032;-60
2022/07/03 02:55:45;;;;;;;5.13;1.75;;;;;;;;;;4930667;29;20020;-60
2022/07/03 02:58:12;;;;;;;1.98;1.40;;;;;;;;;;4923197;29;20050;-60
2022/07/03 03:00:39;;;;;;;2.05;1.30;;;;;;;;;;4920314;29;20400;-59
2022/07/03 03:03:06;;;;;;;2.38;1.20;;;;;;;;;;4919124;29;20036;-59
2022/07/03 03:05:41;;;;;;;5.05;1.40;;;;;;;;;;4929532;29;20031;-59
2022/07/03 03:08:19;;;;;;;2.45;1.40;;;;;;;;;;4925587;29;20511;-59
2022/07/03 03:10:45;;;;;;;3.13;1.33;;;;;;;;;;4923446;29;20040;-59
2022/07/03 03:13:13;;;;;;;4.88;1.27;;;;;;;;;;4923115;29;20020;-60
2022/07/03 03:15:43;;;;;;;4.18;1.27;;;;;;;;;;4920335;29;20400;-60
2022/07/03 03:18:12;;;;;;;1.23;1.13;;;;;;;;;;4918831;29;20129;-60
2022/07/03 03:20:40;;;;;;;2.85;1.40;;;;;;;;;;4921857;29;20058;-59
2022/07/03 03:23:31;;;;;;;2.05;1.15;;;;;;;;;;4927559;29;20032;-60
2022/07/03 03:25:58;;;;;;;;;;;;;;;;;;4927177;29;20031;-60
2022/07/03 03:28:25;;;;;;;3.42;1.30;;;;;;;;;;4922879;29;19907;-59
2022/07/03 03:30:52;;;;;;;1.75;1.35;;;;;;;;;;4921845;29;20035;-59
2022/07/03 03:33:19;;;;;;;1.80;1.30;;;;;;;;;;4918609;29;20029;-60
2022/07/03 03:35:46;;;;;;;1.95;1.40;;;;;;;;;;4921087;29;20066;-59
2022/07/03 03:38:13;;;;;;;1.65;1.27;;;;;;;;;;4924762;29;20501;-59
2022/07/03 03:40:39;;;;;;;2.85;1.30;;;;;;;;;;4926597;29;20031;-59
2022/07/03 03:43:05;;;;;;;1.95;1.30;;;;;;;;;;4926084;29;20448;-59
2022/07/03 03:45:32;;;;;;;1.95;1.30;;;;;;;;;;4922330;29;20463;-60
2022/07/03 03:47:58;;;;;;;3.78;1.45;;;;;;;;;;4922114;29;20086;-59
2022/07/03 03:50:25;;;;;;;2.30;1.40;;;;;;;;;;4926225;29;20024;-59
2022/07/03 03:52:51;;;;;;;5.32;1.42;;;;;;;;;;4926240;29;20028;-59
2022/07/03 03:55:17;;;;;;;2.15;1.40;;;;;;;;;;4925932;29;20028;-59
2022/07/03 03:57:44;;;;;;;1.77;1.10;;;;;;;;;;4923800;29;20035;-60
2022/07/03 04:00:11;;;;;;;3.88;1.50;;;;;;;;;;4922164;29;20026;-59
2022/07/03 04:02:37;;;;;;;2.92;1.58;;;;;;;;;;4932988;29;20023;-59
2022/07/03 04:05:04;;;;;;;2.65;1.45;;;;;;;;;;4928874;29;20028;-60
2022/07/03 04:07:30;;;;;;;7.93;1.30;;;;;;;;;;4926052;29;20028;-60
2022/07/03 04:09:57;;;;;;;4.70;1.30;;;;;;;;;;4925191;29;20034;-60
2022/07/03 04:12:23;;;;;;;3.88;1.40;;;;;;;;;;4921556;29;20028;-60
2022/07/03 04:14:49;;;;;;;2.67;1.52;;;;;;;;;;4923519;29;20028;-59
2022/07/03 04:17:16;;;;;;;3.33;1.50;;;;;;;;;;4925765;29;20040;-60
2022/07/03 04:19:42;;;;;;;4.82;1.25;;;;;;;;;;4925876;29;20039;-60
2022/07/03 04:22:09;;;;;;;2.60;1.33;;;;;;;;;;4925692;29;20026;-60
2022/07/03 04:24:38;;;;;;;2.30;1.40;;;;;;;;;;4921941;29;20035;-60
2022/07/03 04:27:05;;;;;;;2.92;1.27;;;;;;;;;;4921326;29;20494;-60
2022/07/03 04:29:31;;;;;;;3.13;1.60;;;;;;;;;;4925385;29;20024;-60
2022/07/03 04:31:57;;;;;;;2.35;1.40;;;;;;;;;;4919082;29;20032;-59
2022/07/03 04:34:24;;;;;;;8.05;1.67;;;;;;;;;;4925388;29;20032;-60
2022/07/03 04:36:50;;;;;;;5.80;1.48;;;;;;;;;;4924257;29;20031;-60
2022/07/03 04:39:16;;;;;;;1.55;1.10;;;;;;;;;;4920595;29;20046;-59
2022/07/03 04:41:43;;;;;;;3.75;1.30;;;;;;;;;;4931547;29;20036;-60
2022/07/03 04:44:09;;;;;;;2.92;1.70;;;;;;;;;;4927508;29;20519;-60
2022/07/03 04:46:36;;;;;;;1.88;1.40;;;;;;;;;;4925354;29;20028;-60
2022/07/03 04:49:02;;;;;;;1.42;1.30;;;;;;;;;;4925104;29;20364;-60
2022/07/03 04:51:28;;;;;;;1.40;1.23;;;;;;;;;;4920596;29;20035;-60
2022/07/03 04:53:55;;;;;;;2.30;1.50;;;;;;;;;;4922127;29;20043;-60
2022/07/03 04:56:21;;;;;;;2.47;1.25;;;;;;;;;;4925290;29;20020;-60
2022/07/03 04:58:47;;;;;;;2.75;1.70;;;;;;;;;;4925041;29;20032;-60
2022/07/03 05:01:13;;;;;;;5.43;1.20;;;;;;;;;;4925165;29;20362;-60
2022/07/03 05:03:40;;;;;;;3.20;1.17;;;;;;;;;;4922020;29;20523;-60
2022/07/03 05:06:07;;;;;;;2.17;1.50;;;;;;;;;;4920978;29;20024;-60
2022/07/03 05:08:33;;;;;;;3.85;1.33;;;;;;;;;;4931662;29;20032;-60
2022/07/03 05:11:00;;;;;;;4.35;1.40;;;;;;;;;;4928301;29;20080;-60
2022/07/03 05:13:26;;;;;;;5.55;1.48;;;;;;;;;;4924823;29;20034;-60
2022/07/03 05:15:52;;;;;;;5.65;1.20;;;;;;;;;;4923788;29;20042;-60
2022/07/03 05:18:18;;;;;;;3.55;1.40;;;;;;;;;;4920098;29;20506;-59
2022/07/03 05:20:45;;;;;;;2.05;1.48;;;;;;;;;;4931958;29;20026;-60
2022/07/03 05:23:11;;;;;;;1.50;1.40;;;;;;;;;;4926346;29;20024;-60
2022/07/03 05:25:37;;;;;;;2.00;1.35;;;;;;;;;;4924561;29;20024;-60
2022/07/03 05:28:04;;;;;;;4.35;1.55;;;;;;;;;;4924602;29;20513;-60
2022/07/03 05:30:30;;;;;;;2.00;1.35;;;;;;;;;;4920515;29;20032;-60
2022/07/03 05:32:57;;;;;;;2.60;1.40;;;;;;;;;;4931831;29;20543;-60
2022/07/03 05:35:23;;;;;;;1.40;1.27;;;;;;;;;;4925385;29;20024;-60
2022/07/03 05:37:50;;;;;;;1.65;1.20;;;;;;;;;;4924360;29;20048;-59
2022/07/03 05:40:17;;;;;;;2.03;1.30;;;;;;;;;;4924566;29;20138;-60
2022/07/03 05:42:43;;;;;;;1.98;1.27;;;;;;;;;;4921685;29;20030;-60
2022/07/03 05:45:10;;;;;;;4.32;1.60;;;;;;;;;;4919898;29;20068;-60
2022/07/03 05:47:36;;;;;;;3.03;1.40;;;;;;;;;;4923248;29;20020;-60
2022/07/03 05:50:02;;;;;;;4.63;1.65;;;;;;;;;;4925299;29;20030;-60
2022/07/03 05:52:29;;;;;;;4.05;1.70;;;;;;;;;;4930447;29;20016;-60
2022/07/03 05:54:55;;;;;;;2.78;1.60;;;;;;;;;;4934991;29;20294;-60
2022/07/03 05:57:21;;;;;;;4.10;1.50;;;;;;;;;;4919860;29;20035;-60
2022/07/03 05:59:48;;;;;;;2.63;1.25;;;;;;;;;;4931156;29;20090;-59
2022/07/03 06:02:14;;;;;;;1.77;1.15;;;;;;;;;;4925308;29;20012;-60
2022/07/03 06:04:41;;;;;;;3.67;1.50;;;;;;;;;;4923906;29;20040;-60
2022/07/03 06:07:07;;;;;;;2.35;1.27;;;;;;;;;;4923879;29;20030;-60
2022/07/03 06:09:33;;;;;;;2.47;1.27;;;;;;;;;;4920005;29;20382;-60
2022/07/03 06:11:59;;;;;;;5.90;1.23;;;;;;;;;;4920223;29;20039;-60
2022/07/03 06:14:26;;;;;;;4.70;1.50;;;;;;;;;;4924045;29;20043;-60
2022/07/03 06:16:52;;;;;;;2.22;1.30;;;;;;;;;;4923869;29;20040;-61
2022/07/03 06:19:18;;;;;;;1.85;1.30;;;;;;;;;;4923763;29;20401;-59
2022/07/03 06:21:45;;;;;;;3.20;1.40;;;;;;;;;;4921179;29;20404;-60
2022/07/03 06:24:11;;;;;;;2.25;1.45;;;;;;;;;;4919554;29;20102;-60
2022/07/03 06:26:38;;;;;;;3.63;1.50;;;;;;;;;;4922921;29;20028;-60
2022/07/03 06:29:04;;;;;;;3.42;1.30;;;;;;;;;;4923826;29;20024;-60
2022/07/03 06:31:31;;;;;;;5.28;1.30;;;;;;;;;;4923900;29;20054;-60
2022/07/03 06:33:57;;;;;;;2.42;1.30;;;;;;;;;;4901817;29;20025;-60
2022/07/03 06:36:24;;;;;;;4.72;1.60;;;;;;;;;;4933882;29;20035;-60
2022/07/03 06:38:50;;;;;;;1.77;1.27;;;;;;;;;;4920818;29;20354;-60
2022/07/03 06:41:16;;;;;;;5.72;1.60;;;;;;;;;;4923649;29;20028;-60
2022/07/03 06:43:43;;;;;;;3.33;1.55;;;;;;;;;;4923574;29;20031;-60
2022/07/03 06:46:09;;;;;;;2.47;1.40;;;;;;;;;;4917883;29;20028;-60
2022/07/03 06:48:35;;;;;;;2.28;1.38;;;;;;;;;;4934161;29;20042;-60
2022/07/03 06:51:02;;;;;;;5.50;1.63;;;;;;;;;;4930935;29;20479;-60
2022/07/03 06:53:28;;;;;;;5.78;1.73;;;;;;;;;;4922833;29;20028;-60
2022/07/03 06:55:54;;;;;;;1.90;1.48;;;;;;;;;;4923498;29;20488;-60
2022/07/03 06:58:20;;;;;;;2.00;1.40;;;;;;;;;;4919170;29;20048;-60
2022/07/03 07:00:47;;;;;;;2.55;1.60;;;;;;;;;;4932149;29;20031;-60
2022/07/03 07:03:13;;;;;;;4.10;1.60;;;;;;;;;;4932657;29;20028;-60
2022/07/03 07:05:39;;;;;;;4.65;1.58;;;;;;;;;;4921617;29;20032;-60
2022/07/03 07:08:06;;;;;;;4.53;1.48;;;;;;;;;;4923717;29;20024;-60
2022/07/03 07:10:32;;;;;;;1.92;1.60;;;;;;;;;;4923404;29;20371;-60
2022/07/03 07:12:58;;;;;;;2.03;1.50;;;;;;;;;;4924637;29;20400;-60
2022/07/03 07:15:25;;;;;;;2.35;1.63;;;;;;;;;;4922786;29;20024;-60
2022/07/03 07:17:51;;;;;;;3.83;1.58;;;;;;;;;;4934073;29;20048;-60
2022/07/03 07:20:17;;;;;;;3.25;1.40;;;;;;;;;;4927472;29;20016;-60
2022/07/03 07:22:44;;;;;;;2.30;1.60;;;;;;;;;;4926776;29;20020;-60
2022/07/03 07:25:10;;;;;;;4.38;1.42;;;;;;;;;;4927001;29;20028;-60
2022/07/03 07:27:36;;;;;;;4.47;1.48;;;;;;;;;;4923592;29;20034;-60
2022/07/03 07:30:03;;;;;;;3.20;1.50;;;;;;;;;;4922617;29;20024;-60
2022/07/03 07:32:29;;;;;;;2.97;1.50;;;;;;;;;;4926750;29;20099;-60
2022/07/03 07:34:56;;;;;;;2.25;1.60;;;;;;;;;;4926287;29;20068;-60
2022/07/03 07:37:22;;;;;;;2.22;1.40;;;;;;;;;;4926832;29;20039;-60
2022/07/03 07:39:48;;;;;;;2.92;1.40;;;;;;;;;;4924826;29;20511;-60
2022/07/03 07:42:16;;;;;;;6.13;1.58;;;;;;;;;;4921970;29;20120;-60
2022/07/03 07:44:42;;;;;;;4.18;1.50;;;;;;;;;;4925186;29;20032;-61
2022/07/03 07:47:08;;;;;;;3.42;1.58;;;;;;;;;;4926435;29;20034;-60
2022/07/03 07:49:34;;;;;;;1.75;1.40;;;;;;;;;;4926532;29;20036;-60
2022/07/03 07:52:01;;;;;;;3.13;1.40;;;;;;;;;;4926296;29;20019;-60
2022/07/03 07:54:27;;;;;;;4.80;1.63;;;;;;;;;;4922298;29;20036;-60
2022/07/03 07:56:54;;;;;;;1.98;1.50;;;;;;;;;;4933861;29;20045;-61
2022/07/03 07:59:20;;;;;;;2.85;1.38;;;;;;;;;;4927011;29;20062;-60
2022/07/03 08:07:16;;;;;;;1.80;1.30;;;;;;;;;;4926211;29;20025;-61
2022/07/03 08:09:42;;;;;;;4.97;1.95;;;;;;;;;;4923850;29;20031;-61
2022/07/03 08:12:09;;;;;;;2.83;1.35;;;;;;;;;;4921679;29;20021;-60
2022/07/03 08:14:35;;;;;;;3.35;1.40;;;;;;;;;;4925240;29;20036;-60
2022/07/03 08:17:01;;;;;;;1.33;1.15;;;;;;;;;;4925854;29;20099;-62
2022/07/03 08:19:28;;;;;;;1.98;1.40;;;;;;;;;;4925880;29;20032;-61
2022/07/03 08:21:54;;;;;;;2.10;1.52;;;;;;;;;;4924954;29;20080;-60
2022/07/03 08:24:20;;;;;;;4.30;1.50;;;;;;;;;;4921288;29;20070;-61
2022/07/03 08:26:47;;;;;;;1.83;1.20;;;;;;;;;;4923474;29;20481;-60
2022/07/03 08:29:13;;;;;;;4.00;1.40;;;;;;;;;;4925769;29;20021;-60
2022/07/03 08:31:39;;;;;;;3.85;1.65;;;;;;;;;;4925342;29;20532;-60
2022/07/03 08:34:06;;;;;;;6.18;1.40;;;;;;;;;;4921568;29;20560;-60
2022/07/03 08:36:32;;;;;;;1.60;1.40;;;;;;;;;;4936806;29;20038;-61
2022/07/03 08:38:59;;;;;;;3.13;1.52;;;;;;;;;;4921942;29;20036;-60
2022/07/03 08:41:27;;;;;;;1.73;1.30;;;;;;;;;;4925783;29;20034;-60
2022/07/03 08:43:54;;;;;;;4.18;1.30;;;;;;;;;;4925574;29;20434;-60
2022/07/03 08:46:20;;;;;;;5.63;1.20;;;;;;;;;;4925367;29;20020;-60
2022/07/03 08:48:47;;;;;;;4.47;1.40;;;;;;;;;;4923462;29;20030;-60
2022/07/03 08:51:14;;;;;;;2.92;1.20;;;;;;;;;;4921039;29;20028;-60
2022/07/03 08:53:40;;;;;;;2.78;1.48;;;;;;;;;;4924227;29;20040;-60
2022/07/03 08:56:08;;;;;;;2.13;1.30;;;;;;;;;;4925184;29;20379;-60
2022/07/03 08:58:34;;;;;;;1.65;1.20;;;;;;;;;;4925172;29;20032;-60
2022/07/03 09:01:01;;;;;;;1.80;1.27;;;;;;;;;;4924637;29;20519;-60
2022/07/03 09:03:28;;;;;;;4.57;1.40;;;;;;;;;;4920668;29;20517;-61
2022/07/03 09:05:57;;;;;;;1.80;1.17;;;;;;;;;;4921885;29;20383;-61
2022/07/03 09:08:23;;;;;;;3.53;1.35;;;;;;;;;;4925174;29;20035;-61
2022/07/03 09:10:50;;;;;;;2.17;1.45;;;;;;;;;;4924793;29;20032;-60
2022/07/03 09:13:16;;;;;;;2.70;1.48;;;;;;;;;;4922512;29;20024;-60
2022/07/03 09:15:44;;;;;;;2.05;1.20;;;;;;;;;;4935604;29;20044;-61
2022/07/03 09:18:10;;;;;;;3.00;1.30;;;;;;;;;;4920688;29;20059;-61
2022/07/03 09:20:37;;;;;;;3.85;1.63;;;;;;;;;;4924302;29;20024;-60
2022/07/03 09:23:13;;;;;;;6.35;4.45;;;;;;;;;;4924869;29;20028;-60
2022/07/03 09:25:52;;;;;;;5.07;2.30;;;;;;;;;;4924800;29;20013;-60
2022/07/03 09:28:20;;;;;;;5.15;2.15;;;;;;;;;;4924643;29;20489;-61
2022/07/03 09:31:02;;;;;;;1.83;1.70;;;;;;;;;;4922232;29;20026;-61
2022/07/03 09:33:28;;;;;;;1.85;1.60;;;;;;;;;;4920145;29;20026;-61
2022/07/03 09:35:55;;;;;;;1.50;1.40;;;;;;;;;;4921011;29;20032;-60
2022/07/03 09:38:22;;;;;;;2.70;1.70;;;;;;;;;;4924464;29;20043;-59
2022/07/03 09:40:50;;;;;;;3.35;1.40;;;;;;;;;;4924771;29;20024;-58
2022/07/03 09:43:22;;;;;;;1.97;1.43;;;;;;;;;;4924159;29;20015;-58
2022/07/03 09:45:52;;;;;;;2.88;1.35;;;;;;;;;;4922639;29;20380;-58
2022/07/03 09:48:32;;;;;;;2.95;1.83;;;;;;;;;;4919978;29;20388;-59
2022/07/03 09:51:18;;;;;;;2.40;1.30;;;;;;;;;;4931844;29;20034;-58
2022/07/03 09:53:44;;;;;;;3.70;1.45;;;;;;;;;;4933925;29;20024;-58
2022/07/03 09:56:11;;;;;;;4.65;1.30;;;;;;;;;;4929675;29;20019;-59
2022/07/03 09:58:38;;;;;;;2.53;1.55;;;;;;;;;;4930046;29;20050;-58
2022/07/03 10:01:20;;;;;;;6.20;2.30;;;;;;;;;;4924133;29;20026;-59
2022/07/03 10:03:49;;;;;;;2.17;1.98;;;;;;;;;;4922114;29;20030;-58
2022/07/03 10:06:15;;;;;;;1.67;1.45;;;;;;;;;;4919835;29;20035;-59
2022/07/03 10:08:44;;;;;;;1.67;1.35;;;;;;;;;;4922766;29;20040;-59
2022/07/03 10:11:10;;;;;;;2.00;1.40;;;;;;;;;;4924263;29;20020;-58
2022/07/03 10:13:40;;;;;;;3.10;1.60;;;;;;;;;;4923859;29;20034;-59
2022/07/03 10:16:07;;;;;;;2.08;1.88;;;;;;;;;;4923689;29;20030;-58
2022/07/03 10:18:39;;;;;;;1.60;1.20;;;;;;;;;;4920125;29;20036;-58
2022/07/03 10:21:08;;;;;;;5.18;2.42;;;;;;;;;;4919626;29;20120;-58
2022/07/03 10:23:34;;;;;;;4.88;1.30;;;;;;;;;;4930010;29;20400;-59
2022/07/03 10:26:01;;;;;;;2.45;1.40;;;;;;;;;;4927362;29;20026;-58
2022/07/03 10:28:28;;;;;;;4.35;1.45;;;;;;;;;;4923283;29;20028;-58
2022/07/03 10:30:54;;;;;;;2.92;1.40;;;;;;;;;;4919629;29;20034;-59
2022/07/03 10:33:20;;;;;;;2.58;1.48;;;;;;;;;;4934040;29;20058;-58
2022/07/03 10:35:51;;;;;;;1.95;1.70;;;;;;;;;;4921559;29;20024;-59
2022/07/03 10:38:33;;;;;;;4.07;1.45;;;;;;;;;;4923776;29;20040;-58
2022/07/03 10:46:44;;;;;;;2.78;1.60;;;;;;;;;;4924911;29;20392;-59
2022/07/03 10:49:11;;;;;;;2.72;1.77;;;;;;;;;;4927822;29;20042;-58
2022/07/03 10:51:57;;;;;;;4.57;2.50;;;;;;;;;;4924345;29;20024;-59
2022/07/03 10:54:26;;;;;;;2.47;1.85;;;;;;;;;;4923193;29;22188;-58
2022/07/03 10:56:58;;;;;;;2.58;1.80;;;;;;;;;;4924637;29;20016;-58
2022/07/03 10:59:37;;;;;;;2.95;1.50;;;;;;;;;;4927427;29;20040;-59
2022/07/03 11:02:22;;;;;;;2.13;1.58;;;;;;;;;;4927200;29;20478;-59
2022/07/03 11:05:03;;;;;;;4.88;1.25;;;;;;;;;;4927253;29;20040;-61
2022/07/03 11:07:29;;;;;;;4.18;1.25;;;;;;;;;;4927193;29;20397;-61
2022/07/03 11:10:19;;;;;;;3.35;1.27;;;;;;;;;;4919422;29;20038;-60
2022/07/03 11:13:04;;;;;;;4.15;1.60;;;;;;;;;;4925405;29;20032;-59
2022/07/03 11:15:40;;;;;;;2.65;1.50;;;;;;;;;;4923112;29;20050;-59
2022/07/03 11:18:07;;;;;;;4.05;1.73;;;;;;;;;;4934937;29;20452;-58
2022/07/03 11:20:34;;;;;;;4.75;1.90;;;;;;;;;;4934291;29;20035;-59
2022/07/03 11:23:08;;;;;;;4.60;1.48;;;;;;;;;;4930219;29;20016;-59
2022/07/03 11:25:45;;;;;;;6.00;1.30;;;;;;;;;;4926534;29;20034;-58
2022/07/03 11:28:30;;;;;;;2.35;1.50;;;;;;;;;;4926876;29;20020;-58
2022/07/03 11:33:43;;;;;;;4.32;1.30;;;;;;;;;;4922819;29;20042;-59
2022/07/03 11:36:16;;;;;;;2.30;1.50;;;;;;;;;;4935245;29;20493;-59
2022/07/03 11:38:46;;;;;;;1.90;1.40;;;;;;;;;;4923137;29;20040;-58
2022/07/03 11:41:13;;;;;;;2.97;1.52;;;;;;;;;;4926589;29;20034;-59
2022/07/03 11:43:47;;;;;;;1.90;1.33;;;;;;;;;;4926819;29;20016;-58
2022/07/03 11:46:17;;;;;;;3.30;1.40;;;;;;;;;;4926426;29;20485;-58
2022/07/03 11:48:43;;;;;;;1.70;1.50;;;;;;;;;;4920272;29;20024;-58
2022/07/03 11:51:10;;;;;;;2.47;1.58;;;;;;;;;;4937599;29;20023;-61
2022/07/03 11:53:37;;;;;;;3.10;1.50;;;;;;;;;;4925522;28;20065;-60
2022/07/03 11:56:05;;;;;;;2.67;1.60;;;;;;;;;;4926302;29;20051;-61
2022/07/03 11:58:41;;;;;;;2.53;1.65;;;;;;;;;;4925532;29;20047;-61
2022/07/03 12:01:12;;;;;;;4.78;1.77;;;;;;;;;;4926244;29;20026;-60
2022/07/03 12:03:38;;;;;;;6.05;1.70;;;;;;;;;;4923157;29;20024;-61
2022/07/03 12:06:04;;;;;;;7.70;1.63;;;;;;;;;;4921981;29;20485;-60
2022/07/03 12:08:32;;;;;;;3.17;1.42;;;;;;;;;;4925549;29;20035;-60
2022/07/03 12:11:08;;;;;;;5.63;1.48;;;;;;;;;;4926134;29;20024;-61
2022/07/03 12:13:34;;;;;;;3.63;2.25;;;;;;;;;;4926226;29;20028;-60
2022/07/03 12:16:04;;;;;;;7.82;2.45;;;;;;;;;;4925809;29;20050;-60
2022/07/03 12:18:42;;;;;;;3.08;1.27;;;;;;;;;;4921670;29;20042;-60
2022/07/03 12:21:09;;;;;;;2.72;1.52;;;;;;;;;;4934285;29;20086;-61
2022/07/03 12:23:45;;;;;;;5.72;1.40;;;;;;;;;;4925334;29;20028;-60
2022/07/03 12:26:12;;;;;;;2.95;1.50;;;;;;;;;;4925839;29;20027;-60
2022/07/03 12:28:38;;;;;;;5.05;1.35;;;;;;;;;;4926872;29;20031;-60
2022/07/03 12:31:05;;;;;;;2.75;1.40;;;;;;;;;;4936590;29;20038;-60
2022/07/03 12:33:35;;;;;;;4.70;1.38;;;;;;;;;;4921740;29;20028;-60
2022/07/03 12:36:08;;;;;;;4.13;1.48;;;;;;;;;;4933742;29;20032;-61
2022/07/03 12:38:39;;;;;;;3.35;1.38;;;;;;;;;;4931517;29;20045;-60
2022/07/03 12:41:07;;;;;;;2.15;1.30;;;;;;;;;;4928291;29;20017;-60
2022/07/03 12:43:40;;;;;;;4.97;1.75;;;;;;;;;;4925523;29;20079;-60
2022/07/03 12:46:17;;;;;;;3.63;1.50;;;;;;;;;;4925572;29;20016;-60
2022/07/03 12:48:53;;;;;;;2.53;1.48;;;;;;;;;;4923109;29;20035;-60
2022/07/03 12:51:39;;;;;;;12.07;1.55;;;;;;;;;;4921025;29;20028;-60
2022/07/03 12:54:06;;;;;;;5.00;1.25;;;;;;;;;;4933048;29;20038;-61
2022/07/03 12:56:32;;;;;;;7.07;1.70;;;;;;;;;;4924977;29;20385;-60
2022/07/03 12:59:17;;;;;;;2.15;1.30;;;;;;;;;;4925195;29;20042;-60
2022/07/03 13:01:44;;;;;;;1.95;1.10;;;;;;;;;;4925330;29;20046;-60
2022/07/03 13:04:14;;;;;;;3.17;1.30;;;;;;;;;;4925186;29;20034;-61
2022/07/03 13:06:42;;;;;;;5.22;1.30;;;;;;;;;;4920770;29;20381;-60
2022/07/03 13:09:09;;;;;;;2.88;1.25;;;;;;;;;;4933264;29;20055;-60
2022/07/03 13:11:35;;;;;;;4.05;1.17;;;;;;;;;;4935962;29;20034;-60
2022/07/03 13:14:04;;;;;;;8.05;1.40;;;;;;;;;;4931524;29;20019;-60
2022/07/03 13:16:31;;;;;;;5.03;1.80;;;;;;;;;;4932165;29;20445;-60
2022/07/03 13:18:58;;;;;;;3.80;1.30;;;;;;;;;;4923946;29;20508;-60
2022/07/03 13:21:24;;;;;;;5.93;1.40;;;;;;;;;;4920235;29;20024;-60
2022/07/03 13:23:50;;;;;;;2.15;1.20;;;;;;;;;;4922237;29;20385;-60
2022/07/03 13:26:17;;;;;;;1.88;1.05;;;;;;;;;;4924793;29;20028;-60
2022/07/03 13:28:43;;;;;;;3.10;1.92;;;;;;;;;;4924536;29;20039;-60
2022/07/03 13:31:09;;;;;;;3.53;1.40;;;;;;;;;;4924789;29;20028;-60
2022/07/03 13:33:36;;;;;;;6.15;1.60;;;;;;;;;;4920894;29;20028;-61
2022/07/03 13:36:02;;;;;;;3.42;1.35;;;;;;;;;;4919997;29;20028;-60
2022/07/03 13:38:29;;;;;;;1.50;1.20;;;;;;;;;;4924799;29;20044;-60
2022/07/03 13:40:55;;;;;;;2.95;1.35;;;;;;;;;;4924689;29;20028;-60
2022/07/03 13:43:22;;;;;;;4.15;1.20;;;;;;;;;;4932840;29;20404;-60
2022/07/03 13:45:48;;;;;;;3.78;1.30;;;;;;;;;;4921111;29;20024;-60
2022/07/03 13:48:14;;;;;;;3.50;1.10;;;;;;;;;;4933435;29;20460;-60
2022/07/03 13:50:44;;;;;;;7.97;1.33;;;;;;;;;;4923031;28;20036;-60
2022/07/03 13:53:10;;;;;;;4.93;1.35;;;;;;;;;;4924346;29;20017;-60
2022/07/03 13:55:36;;;;;;;2.08;1.30;;;;;;;;;;4924550;29;20493;-60
2022/07/03 13:58:04;;;;;;;3.75;1.10;;;;;;;;;;4924494;29;20042;-61
2022/07/03 14:00:31;;;;;;;4.95;1.17;;;;;;;;;;4935272;29;20031;-60
2022/07/03 14:02:57;;;;;;;7.00;1.40;;;;;;;;;;4931358;29;20102;-60
2022/07/03 14:05:24;;;;;;;6.70;1.50;;;;;;;;;;4924637;29;20024;-60
2022/07/03 14:07:50;;;;;;;3.45;1.48;;;;;;;;;;4924191;29;20501;-60
2022/07/03 14:10:16;;;;;;;3.63;1.50;;;;;;;;;;4924123;29;20034;-60
2022/07/03 14:12:43;;;;;;;5.78;1.42;;;;;;;;;;4921722;29;20027;-60
2022/07/03 14:15:09;;;;;;;3.83;1.20;;;;;;;;;;4920032;29;20507;-60
2022/07/03 14:17:36;;;;;;;7.93;1.25;;;;;;;;;;4923069;29;20047;-61
2022/07/03 14:20:02;;;;;;;6.00;1.40;;;;;;;;;;4923479;29;20038;-60
2022/07/03 14:22:28;;;;;;;2.95;1.10;;;;;;;;;;4923703;29;20020;-61
2022/07/03 14:24:56;;;;;;;3.65;1.30;;;;;;;;;;4919681;29;20055;-60
2022/07/03 14:32:52;;;;;;;3.22;1.48;;;;;;;;;;4921226;29;20044;-60
2022/07/03 14:35:18;;;;;;;9.18;1.30;;;;;;;;;;4923368;29;20028;-60
2022/07/03 14:37:45;;;;;;;1.10;1.00;;;;;;;;;;4923703;29;20034;-60
2022/07/03 14:40:11;;;;;;;3.38;1.23;;;;;;;;;;4923504;29;20457;-60
2022/07/03 14:42:38;;;;;;;5.63;1.10;;;;;;;;;;4920202;29;20066;-60
2022/07/03 14:45:04;;;;;;;4.82;1.23;;;;;;;;;;4919581;29;20038;-60
2022/07/03 14:47:31;;;;;;;2.83;1.20;;;;;;;;;;4922813;29;20034;-60
2022/07/03 14:49:57;;;;;;;6.03;2.40;;;;;;;;;;4923292;29;20028;-60
2022/07/03 14:52:23;;;;;;;3.17;1.60;;;;;;;;;;4923420;29;20038;-60
2022/07/03 14:54:53;;;;;;;7.22;1.30;;;;;;;;;;4921631;29;20030;-60
2022/07/03 14:57:27;;;;;;;5.03;1.50;;;;;;;;;;4919139;29;20024;-60
2022/07/03 15:00:07;;;;;;;5.90;1.73;;;;;;;;;;4920554;29;20103;-60
2022/07/03 15:02:54;;;;;;;5.28;1.30;;;;;;;;;;4934198;29;20093;-60
2022/07/03 15:05:20;;;;;;;5.18;1.33;;;;;;;;;;4924545;29;20079;-60
2022/07/03 15:07:59;;;;;;;7.88;1.25;;;;;;;;;;4923443;29;20027;-60
2022/07/03 15:10:25;;;;;;;6.22;1.35;;;;;;;;;;4923530;29;20038;-60
2022/07/03 15:12:53;;;;;;;2.55;1.35;;;;;;;;;;4922026;29;20070;-60